Terminal Aerodrome Forecast
Issued by NWS

Home | Current Version | Previous Version | Text Only | Print | Product List | Glossary On
Versions: 1 2 3 4 5 6 7 8 9 10 11 12 13 14 15 16 17 18 19 20 21 22 23 24 25 26 27 28 29 30 31 32 33 34
000
FTUS46 KMTR 170539
TAFOAK
TAF
KOAK 170539Z 1706/1812 17020G29KT 5SM SHRA BR SCT015 BKN020 OVC035
      WS020/17030KT
     FM170900 21018G24KT 5SM SHRA BR SCT020 BKN030 OVC050
     FM171200 22010G16KT 6SM -SHRA BR SCT025 BKN035 OVC060
     FM172100 25012G19KT 6SM BR VCSH SCT030 SCT050 BKN080
     FM180300 25011G17KT P6SM SCT025 BKN040
     FM180900 26007KT P6SM BKN020=

USA.gov is the U.S. government's official web portal to all federal, state and local government web resources and services.